Naas, Ireland

2:47 PM GMT on February 20, 2017 (GMT +0000)
Naas | | Change Station

Elev 381 ft 53.21 °N, 6.69 °W | Updated 12 seconds ago

Overcast
Overcast
54.5 °F
Feels Like 54.5 °F
N
3.0
Wind Variable Wind from West
Gusts 10.0 mph

Today
High -- | Low -- °F
--% Chance of Precip.
Yesterday
High -- | Low -- °F
Precip. -- in
Pressure 30.04 in
Visibility 6.2 miles
Clouds Few 1100 ft
Mostly Cloudy 1300 ft
Dew Point 52 °F
Humidity 92%
Rainfall 0.02 in
Snow Depth Not available.
7:33 AM 5:47 PM
Waning Crescent, 33% visible
METAR EIME 201430Z 26020G31KT 9999 -RA FEW011 BKN013 12/11 Q1017
Pressure 30.04 in
Visibility 6.2 miles
Clouds Few 1100 ft
Mostly Cloudy 1300 ft
Dew Point 52 °F
Humidity 92%
Rainfall 0.02 in
Snow Depth Not available.
7:33 AM 5:47 PM
Waning Crescent, 33% visible
METAR EIME 201430Z 26020G31KT 9999 -RA FEW011 BKN013 12/11 Q1017

Get Your Daily Forecast Email!

Thanks for signing up!

Be on the lookout for a verification email in your inbox.

You'll start receiving the daily forecast at 8 AM.

×

10-Day Weather Forecast

×

Almanac

Astronomy

Feb. 20, 2017 Rise Set
Actual Time
Civil Twilight
Nautical Twilight
Astronomical Twilight
Moon
Length of Visible Light
Length of Day
Tomorrow will be .
, % of the Moon is Illuminated

Today's Extremes

Country Highs Country Lows

Community

WunderPhotos

Upload Photos

1,962,540 photos uploaded!

WunderBlog® & News

Nearby

Air Quality

  Air Quality AQ Index Pollutant
Not available.

Snow Depth

Station Depth Elevation

Earthquake Activity

City Distance Mag. Time & Date
Minimum magnitude displayed is 2.5.

Coastal Water Temperatures

Place Temperature

Stations

Nearby Weather Stations

Station Location Temp. Windchill Dew Point Humidity Wind Precip. Elev Updated Type